createdAt,value
2017-08-11T00:00:44.917Z,98.3
2017-08-11T00:01:53.367Z,97.4
2017-08-11T00:03:00.862Z,97.4
2017-08-11T00:04:08.035Z,98.1
2017-08-11T00:05:15.807Z,97.7
2017-08-11T00:06:23.287Z,98.3
2017-08-11T00:07:30.769Z,98.7
2017-08-11T00:08:37.929Z,98.3
2017-08-11T00:09:45.405Z,97.6
2017-08-11T00:10:53.181Z,98.1
2017-08-11T00:12:00.659Z,97.8
2017-08-11T00:13:08.143Z,98
2017-08-11T00:14:15.303Z,98.3
2017-08-11T00:15:22.783Z,97.9
2017-08-11T00:16:30.561Z,99.7
2017-08-11T00:17:38.279Z,99.8
2017-08-11T00:18:45.763Z,99.9
2017-08-11T00:19:53.262Z,99.9
2017-08-11T00:21:00.757Z,99.9
2017-08-11T00:22:08.209Z,99.9
2017-08-11T00:23:15.688Z,99.9
2017-08-11T00:24:23.174Z,99.9
2017-08-11T00:25:30.014Z,99.9
2017-08-11T00:26:37.166Z,99.9
2017-08-11T00:27:44.947Z,99.9
2017-08-11T00:28:52.423Z,99.9
2017-08-11T00:29:59.902Z,99.9
2017-08-11T00:31:07.383Z,99.9
2017-08-11T00:32:14.538Z,99.9
2017-08-11T00:33:22.028Z,99.9
2017-08-11T00:34:29.178Z,99.9
2017-08-11T00:35:36.663Z,99.8
2017-08-11T00:36:44.142Z,99.9
2017-08-11T00:37:51.621Z,99.1
2017-08-11T00:40:21.138Z,98.2
2017-08-11T00:41:28.283Z,98.3
2017-08-11T00:42:35.441Z,98.6
2017-08-11T00:43:42.618Z,98.3
2017-08-11T00:44:50.653Z,98.3
2017-08-11T00:45:57.802Z,98.3
2017-08-11T00:47:05.288Z,98.1
2017-08-11T00:48:12.440Z,97.5
2017-08-11T00:49:19.924Z,97.6
2017-08-11T00:50:27.336Z,98.3
2017-08-11T00:51:34.818Z,97.6
2017-08-11T00:52:42.943Z,98.1
2017-08-11T00:53:50.108Z,98.1
2017-08-11T00:54:57.256Z,98.8
2017-08-11T00:56:04.723Z,98.4
2017-08-11T00:57:11.874Z,98.3
2017-08-11T00:58:19.020Z,98.5
2017-08-11T00:59:26.178Z,98
2017-08-11T01:00:33.655Z,98.2
2017-08-11T01:01:40.773Z,98.1
2017-08-11T01:02:47.589Z,97.9
2017-08-11T01:03:54.749Z,98.3
2017-08-11T01:05:02.226Z,98.2
2017-08-11T01:06:09.733Z,98
2017-08-11T01:07:16.853Z,98.3
2017-08-11T01:08:24.331Z,98.3
2017-08-11T01:09:31.811Z,98.3
2017-08-11T01:10:39.291Z,98.2
2017-08-11T01:11:46.450Z,98.2
2017-08-11T01:12:54.192Z,98.3
2017-08-11T01:14:01.667Z,98.6
2017-08-11T01:15:08.836Z,97.3
2017-08-11T01:16:16.005Z,97.7
2017-08-11T01:17:23.160Z,98.2
2017-08-11T01:18:30.889Z,97.6
2017-08-11T01:19:38.369Z,98.3
2017-08-11T01:20:45.853Z,98.2
2017-08-11T01:21:53.329Z,98.3
2017-08-11T01:23:00.810Z,98.3
2017-08-11T01:24:08.592Z,98
2017-08-11T01:25:15.743Z,98
2017-08-11T01:26:22.895Z,98.3
2017-08-11T01:27:30.040Z,98.6
2017-08-11T01:28:37.197Z,98.3
2017-08-11T01:29:44.594Z,98.1
2017-08-11T01:30:52.077Z,97.4
2017-08-11T01:31:59.569Z,97.9
2017-08-11T01:33:07.052Z,97.9
2017-08-11T01:34:13.876Z,97.4
2017-08-11T01:35:21.337Z,97.8
2017-08-11T01:36:28.509Z,97.3
2017-08-11T01:37:35.993Z,97.6
2017-08-11T01:38:43.143Z,97.7
2017-08-11T01:39:50.620Z,98.1
2017-08-11T01:40:58.400Z,98
2017-08-11T01:42:05.879Z,97.7
2017-08-11T01:43:12.703Z,98.2
2017-08-11T01:44:20.187Z,97.9
2017-08-11T01:45:27.334Z,98.5
2017-08-11T01:46:35.114Z,97.8
2017-08-11T01:47:42.590Z,97.1
2017-08-11T01:48:49.415Z,97.9
2017-08-11T01:49:56.238Z,97.9
2017-08-11T01:51:03.389Z,98.3
2017-08-11T01:52:11.168Z,98.3
2017-08-11T01:53:18.318Z,97.9
2017-08-11T01:54:26.767Z,98.5
2017-08-11T01:55:34.250Z,97.9
2017-08-11T01:56:41.409Z,98.1
2017-08-11T01:57:49.360Z,97.8
2017-08-11T01:58:56.516Z,97.7
2017-08-11T02:00:03.996Z,97.4
2017-08-11T02:01:11.168Z,98.1
2017-08-11T02:02:18.643Z,99
2017-08-11T02:03:26.423Z,98.2
2017-08-11T02:04:33.907Z,98
2017-08-11T02:05:41.052Z,98.1
2017-08-11T02:06:48.196Z,98.5
2017-08-11T02:07:55.025Z,98.2
2017-08-11T02:09:02.476Z,98.9
2017-08-11T02:10:09.957Z,98.5
2017-08-11T02:11:18.098Z,97.8
2017-08-11T02:12:25.596Z,98.2
2017-08-11T02:13:32.744Z,98.6
2017-08-11T02:14:39.822Z,98.2
2017-08-11T02:15:46.975Z,98.2
2017-08-11T02:16:54.127Z,98.2
2017-08-11T02:18:01.277Z,98.6
2017-08-11T02:19:08.760Z,97.5
2017-08-11T02:20:16.536Z,98.2
2017-08-11T02:21:23.713Z,98.2
2017-08-11T02:22:31.192Z,98.2
2017-08-11T02:23:37.693Z,99
2017-08-11T02:24:44.842Z,98.9
2017-08-11T02:25:52.294Z,98.9
2017-08-11T02:26:59.451Z,98.6
2017-08-11T02:28:06.931Z,99.3
2017-08-11T02:29:14.078Z,98.8
2017-08-11T02:30:21.558Z,99.3
2017-08-11T02:31:28.695Z,99
2017-08-11T02:32:36.168Z,98.6
2017-08-11T02:33:43.335Z,99.3
2017-08-11T02:34:50.489Z,98.9
2017-08-11T02:35:57.974Z,99.1
2017-08-11T02:37:05.698Z,99.3
2017-08-11T02:38:12.844Z,99.3
2017-08-11T02:39:20.319Z,99.3
2017-08-11T02:40:27.794Z,99
2017-08-11T02:41:34.952Z,99.3
2017-08-11T02:42:42.730Z,98.8
2017-08-11T02:43:50.219Z,98.9
2017-08-11T02:44:57.362Z,98.1
2017-08-11T02:46:04.845Z,98.5
2017-08-11T02:47:11.992Z,98.1
2017-08-11T02:48:19.059Z,98.6
2017-08-11T02:49:26.538Z,98.9
2017-08-11T02:50:33.357Z,99.3
2017-08-11T02:51:40.506Z,98.7
2017-08-11T02:52:47.651Z,98.9
2017-08-11T02:53:54.767Z,98.4
2017-08-11T02:55:01.939Z,98.8
2017-08-11T02:56:09.085Z,99
2017-08-11T02:57:16.242Z,99.3
2017-08-11T02:58:23.723Z,98.9
2017-08-11T02:59:31.507Z,98.9
2017-08-11T03:00:38.982Z,99.6
2017-08-11T03:01:45.799Z,99.7
2017-08-11T03:02:52.614Z,99.5
2017-08-11T03:04:00.089Z,99.8
2017-08-11T03:05:07.539Z,99.4
2017-08-11T03:06:15.018Z,99.2
2017-08-11T03:07:22.498Z,99.2
2017-08-11T03:08:29.978Z,99.9
2017-08-11T03:09:37.126Z,99.1
2017-08-11T03:10:45.838Z,99.4
2017-08-11T03:11:53.314Z,99.2
2017-08-11T03:13:00.463Z,99
2017-08-11T03:14:07.285Z,99
2017-08-11T03:15:14.768Z,99.3
2017-08-11T03:16:22.543Z,99.8
2017-08-11T03:17:30.020Z,99.3
2017-08-11T03:18:37.181Z,99
2017-08-11T03:19:44.660Z,99
2017-08-11T03:20:52.145Z,98.1
2017-08-11T03:21:59.546Z,98.5
2017-08-11T03:23:06.700Z,99.1
2017-08-11T03:24:13.536Z,98.8
2017-08-11T03:25:21.021Z,98.7
2017-08-11T03:26:28.514Z,98.7
2017-08-11T03:27:36.299Z,99
2017-08-11T03:28:43.454Z,99.5
2017-08-11T03:29:50.615Z,98.8
2017-08-11T03:30:57.434Z,99.5
2017-08-11T03:32:04.934Z,98.9
2017-08-11T03:33:12.081Z,98.8
2017-08-11T03:34:19.566Z,99.5
2017-08-11T03:35:26.712Z,98.9
2017-08-11T03:36:33.867Z,99
2017-08-11T03:37:41.011Z,98.8
2017-08-11T03:38:48.130Z,98.6
2017-08-11T03:39:55.278Z,98.3
2017-08-11T03:41:02.762Z,99.4
2017-08-11T03:42:10.250Z,99
2017-08-11T03:43:17.408Z,99.2
2017-08-11T03:44:25.190Z,99.5
2017-08-11T03:45:32.356Z,99.6
2017-08-11T03:46:39.503Z,99.4
2017-08-11T03:47:46.662Z,99.5
2017-08-11T03:48:53.813Z,99.5
2017-08-11T03:50:00.935Z,99.5
2017-08-11T03:51:08.092Z,99.5
2017-08-11T03:52:15.252Z,99.4
2017-08-11T03:53:22.079Z,99.1
2017-08-11T03:54:29.553Z,99.4
2017-08-11T03:55:37.290Z,99.2
2017-08-11T03:56:44.773Z,99.2
2017-08-11T03:57:51.585Z,99.1
2017-08-11T03:58:59.070Z,98.8
2017-08-11T04:00:06.554Z,98.8
2017-08-11T04:01:14.008Z,99
2017-08-11T04:02:21.163Z,99.6
2017-08-11T04:03:28.662Z,99.2
2017-08-11T04:04:36.144Z,99.5
2017-08-11T04:05:43.619Z,98.8
2017-08-11T04:06:51.070Z,98.7
2017-08-11T04:07:58.547Z,98.4
2017-08-11T04:09:05.692Z,98.7
2017-08-11T04:10:12.841Z,99
2017-08-11T04:11:20.322Z,99.5
2017-08-11T04:12:28.100Z,98.9
2017-08-11T04:13:35.251Z,99.3
2017-08-11T04:14:42.732Z,98.8
2017-08-11T04:15:50.218Z,98.8
2017-08-11T04:16:57.362Z,98.5
2017-08-11T04:18:04.839Z,99.2
2017-08-11T04:19:12.320Z,98.1
2017-08-11T04:20:19.146Z,98.6
2017-08-11T04:21:26.650Z,98.1
2017-08-11T04:22:34.583Z,98.4
2017-08-11T04:23:41.743Z,98
2017-08-11T04:24:49.229Z,98.1
2017-08-11T04:25:56.751Z,99
2017-08-11T04:27:04.229Z,98.8
2017-08-11T04:28:11.355Z,98.6
2017-08-11T04:29:18.510Z,99
2017-08-11T04:30:25.327Z,98.1
2017-08-11T04:31:32.807Z,98.1
2017-08-11T04:32:40.284Z,98.2
2017-08-11T04:33:48.061Z,99
2017-08-11T04:34:54.877Z,98.7
2017-08-11T04:36:02.351Z,98.5
2017-08-11T04:37:09.829Z,99
2017-08-11T04:38:16.978Z,98.2
2017-08-11T04:39:24.779Z,99.2
2017-08-11T04:40:32.265Z,98.5
2017-08-11T04:41:39.739Z,98.8
2017-08-11T04:42:47.253Z,98.6
2017-08-11T04:43:54.425Z,99.1
2017-08-11T04:45:01.917Z,98.7
2017-08-11T04:46:09.396Z,98.5
2017-08-11T04:47:16.874Z,98.1
2017-08-11T04:48:24.360Z,98.7
2017-08-11T04:49:32.137Z,99.1
2017-08-11T04:50:39.622Z,99
2017-08-11T04:51:47.103Z,99.4
2017-08-11T04:52:54.584Z,99.2
2017-08-11T04:54:01.728Z,99.1
2017-08-11T04:55:09.504Z,98.8
2017-08-11T04:56:17.006Z,98.7
2017-08-11T04:57:24.484Z,98.8
2017-08-11T04:58:31.976Z,98.4
2017-08-11T04:59:39.131Z,98.8
2017-08-11T05:00:46.913Z,99
2017-08-11T05:01:54.393Z,98.4
2017-08-11T05:03:01.880Z,98.6
2017-08-11T05:04:09.038Z,98.8
2017-08-11T05:05:16.522Z,99.2
2017-08-11T05:06:24.309Z,98.8
2017-08-11T05:07:31.790Z,98.7
2017-08-11T05:08:39.262Z,98.5
2017-08-11T05:09:46.739Z,98.1
2017-08-11T05:10:54.224Z,98.5
2017-08-11T05:12:01.964Z,98.5
2017-08-11T05:13:09.457Z,97.4
2017-08-11T05:14:16.943Z,98.1
2017-08-11T05:15:24.422Z,98.1
2017-08-11T05:16:31.571Z,98.4
2017-08-11T05:17:39.307Z,97.4
2017-08-11T05:18:46.786Z,97.8
2017-08-11T05:19:54.260Z,97.7
2017-08-11T05:21:01.756Z,97.9
2017-08-11T05:22:09.232Z,98.1
2017-08-11T05:23:17.022Z,98.1
2017-08-11T05:24:24.512Z,98.1
2017-08-11T05:25:31.994Z,98.1
2017-08-11T05:26:39.477Z,98.1
2017-08-11T05:27:46.983Z,98.1
2017-08-11T05:28:54.764Z,98.7
2017-08-11T05:30:01.914Z,98.1
2017-08-11T05:31:09.396Z,98.5
2017-08-11T05:32:16.540Z,97.6
2017-08-11T05:33:24.019Z,97.9
2017-08-11T05:34:31.801Z,98.1
2017-08-11T05:35:39.283Z,97.8
2017-08-11T05:36:46.433Z,97.2
2017-08-11T05:37:53.915Z,97.9
2017-08-11T05:39:01.396Z,98.2
2017-08-11T05:40:09.137Z,98.3
2017-08-11T05:41:16.617Z,98.2
2017-08-11T05:42:24.188Z,96.9
2017-08-11T05:43:31.668Z,97.7
2017-08-11T05:44:38.819Z,98.2
2017-08-11T05:45:46.308Z,98
2017-08-11T05:46:54.097Z,98
2017-08-11T05:48:01.583Z,97.6
2017-08-11T05:49:09.073Z,98
2017-08-11T05:50:16.548Z,98
2017-08-11T05:51:24.020Z,98.2
2017-08-11T05:52:31.796Z,97.9
2017-08-11T05:53:39.278Z,97.7
2017-08-11T05:54:46.755Z,98.1
2017-08-11T05:55:54.235Z,98
2017-08-11T05:57:01.710Z,98.1
2017-08-11T05:58:09.489Z,98
2017-08-11T05:59:16.974Z,97.7
2017-08-11T06:00:24.130Z,98.1
2017-08-11T06:01:31.615Z,98.1
2017-08-11T06:02:39.093Z,98.6
2017-08-11T06:03:46.885Z,98.2
2017-08-11T06:04:54.367Z,98.5
2017-08-11T06:06:01.523Z,98.5
2017-08-11T06:07:08.667Z,99.4
2017-08-11T06:08:16.157Z,98.7
2017-08-11T06:09:23.934Z,99.3
2017-08-11T06:10:31.414Z,98.5
2017-08-11T06:11:38.918Z,98.6
2017-08-11T06:12:46.075Z,98.8
2017-08-11T06:13:53.230Z,98.4
2017-08-11T06:15:00.681Z,98.1
2017-08-11T06:16:08.163Z,97.5
2017-08-11T06:17:15.638Z,98
2017-08-11T06:18:23.141Z,98.2
2017-08-11T06:19:30.618Z,98.8
2017-08-11T06:20:38.415Z,98.6
2017-08-11T06:21:45.891Z,98.4
2017-08-11T06:22:53.395Z,98.6
2017-08-11T06:24:00.877Z,98.2
2017-08-11T06:25:08.381Z,98.6
2017-08-11T06:26:16.164Z,98
2017-08-11T06:27:23.644Z,98.5
2017-08-11T06:28:31.122Z,98.5
2017-08-11T06:29:38.267Z,98.3
2017-08-11T06:30:45.748Z,98.6
2017-08-11T06:31:53.529Z,99.2
2017-08-11T06:33:01.011Z,99.1
2017-08-11T06:34:08.158Z,98.5
2017-08-11T06:35:15.636Z,99
2017-08-11T06:36:22.779Z,98.9
2017-08-11T06:37:30.836Z,98.1
2017-08-11T06:38:39.273Z,98.3
2017-08-11T06:39:46.776Z,98.6
2017-08-11T06:40:54.248Z,98.5
2017-08-11T06:42:01.440Z,98.7
2017-08-11T06:43:09.214Z,99.3
2017-08-11T06:44:16.695Z,98.8
2017-08-11T06:45:24.175Z,97.6
2017-08-11T06:46:31.664Z,98
2017-08-11T06:47:39.143Z,98.1
2017-08-11T06:48:46.607Z,98.2
2017-08-11T06:49:54.084Z,98.1
2017-08-11T06:51:01.568Z,98.1
2017-08-11T06:52:09.052Z,98.1
2017-08-11T06:53:16.532Z,98.1
2017-08-11T06:54:24.314Z,98.1
2017-08-11T06:55:31.790Z,98.3
2017-08-11T06:56:39.271Z,98.3
2017-08-11T06:57:46.658Z,99.2
2017-08-11T06:58:54.137Z,99.2
2017-08-11T07:00:01.910Z,99
2017-08-11T07:01:09.079Z,98.4
2017-08-11T07:02:16.558Z,98.8
2017-08-11T07:03:24.035Z,98.9
2017-08-11T07:05:53.871Z,98.6
2017-08-11T07:07:01.348Z,98.4
2017-08-11T07:08:08.493Z,98.7
2017-08-11T07:09:15.982Z,98.8
2017-08-11T07:10:23.452Z,98.1
2017-08-11T07:11:31.509Z,98.1
2017-08-11T07:12:38.981Z,98.3
2017-08-11T07:13:46.476Z,98.4
2017-08-11T07:14:53.628Z,98.3
2017-08-11T07:16:01.111Z,98.1
2017-08-11T07:17:08.587Z,98
2017-08-11T07:18:16.033Z,97.8
2017-08-11T07:19:23.509Z,97.6
2017-08-11T07:20:30.658Z,97.4
2017-08-11T07:21:38.142Z,97
2017-08-11T07:22:45.621Z,97.7
2017-08-11T07:23:53.399Z,96.8
2017-08-11T07:25:00.884Z,97.3
2017-08-11T07:26:08.039Z,97.3
2017-08-11T07:27:15.516Z,97.6
2017-08-11T07:28:22.993Z,97.6
2017-08-11T07:29:30.779Z,97.2
2017-08-11T07:30:37.926Z,96.9
2017-08-11T07:31:45.403Z,96.1
2017-08-11T07:32:52.878Z,96.1
2017-08-11T07:34:00.359Z,96
2017-08-11T07:35:07.849Z,96.1
2017-08-11T07:36:15.337Z,96.7
2017-08-11T07:37:22.816Z,96.9
2017-08-11T07:38:29.974Z,97.3
2017-08-11T07:39:37.753Z,97.2
2017-08-11T07:40:45.232Z,96.8
2017-08-11T07:41:52.704Z,96.6
2017-08-11T07:43:00.184Z,97.1
2017-08-11T07:44:07.663Z,97
2017-08-11T07:45:15.444Z,96.9
2017-08-11T07:46:22.596Z,96.8
2017-08-11T07:47:30.078Z,96.8
2017-08-11T07:48:37.554Z,96.1
2017-08-11T07:49:45.030Z,97
2017-08-11T07:50:52.808Z,97.2
2017-08-11T07:52:00.307Z,97.1
2017-08-11T07:53:07.459Z,97.5
2017-08-11T07:54:14.942Z,96.3
2017-08-11T07:55:22.089Z,96.2
2017-08-11T07:56:29.881Z,96.7
2017-08-11T07:57:37.360Z,96.4
2017-08-11T07:58:44.835Z,96.7
2017-08-11T07:59:52.325Z,96.7
2017-08-11T08:00:59.478Z,96.6
2017-08-11T08:02:06.970Z,96.8
2017-08-11T08:03:14.446Z,96.4
2017-08-11T08:04:21.923Z,96.4
2017-08-11T08:05:29.510Z,97.2
2017-08-11T08:06:37.004Z,97.2
2017-08-11T08:07:44.804Z,96.6
2017-08-11T08:08:53.304Z,96.9
2017-08-11T08:10:00.777Z,97.3
2017-08-11T08:11:08.273Z,97
2017-08-11T08:12:15.781Z,97.1
2017-08-11T08:13:23.556Z,96.9
2017-08-11T08:14:31.037Z,96.9
2017-08-11T08:15:38.517Z,96.9
2017-08-11T08:16:46.000Z,96.9
2017-08-11T08:17:53.501Z,96.8
2017-08-11T08:19:01.232Z,96.6
2017-08-11T08:20:08.701Z,97.2
2017-08-11T08:21:16.182Z,96.9
2017-08-11T08:22:23.321Z,96.7
2017-08-11T08:23:30.801Z,96.6
2017-08-11T08:24:38.533Z,96.5
2017-08-11T08:25:45.683Z,96.8
2017-08-11T08:26:53.161Z,96.4
2017-08-11T08:28:00.645Z,96.9
2017-08-11T08:29:08.124Z,96.7
2017-08-11T08:30:15.904Z,96.4
2017-08-11T08:31:23.382Z,96.3
2017-08-11T08:32:30.544Z,96.6
2017-08-11T08:33:38.022Z,96.3
2017-08-11T08:34:45.501Z,97.1
2017-08-11T08:35:52.949Z,96.5
2017-08-11T08:37:00.427Z,96.2
2017-08-11T08:38:07.912Z,95.9
2017-08-11T08:39:15.396Z,96.4
2017-08-11T08:40:22.876Z,96.6
2017-08-11T08:41:30.650Z,96.4
2017-08-11T08:42:38.123Z,96.3
2017-08-11T08:43:45.604Z,96.2
2017-08-11T08:44:53.086Z,96.3
2017-08-11T08:46:00.237Z,96.4
2017-08-11T08:47:07.641Z,96.7
2017-08-11T08:48:15.124Z,96.6
2017-08-11T08:49:22.837Z,96.4
2017-08-11T08:50:31.154Z,96.9
2017-08-11T08:51:38.634Z,96.5
2017-08-11T08:52:46.431Z,96.7
2017-08-11T08:53:53.584Z,96
2017-08-11T08:55:01.060Z,96.4
2017-08-11T08:56:08.537Z,96.1
2017-08-11T08:57:16.015Z,95.9
2017-08-11T08:58:23.802Z,95.6
2017-08-11T08:59:31.280Z,95.8
2017-08-11T09:00:38.756Z,96.3
2017-08-11T09:01:46.237Z,96.4
2017-08-11T09:02:53.724Z,96.2
2017-08-11T09:04:01.198Z,96.2
2017-08-11T09:05:08.353Z,96.1
2017-08-11T09:06:15.839Z,95.9
2017-08-11T09:07:23.616Z,95.2
2017-08-11T09:08:31.114Z,95.2
2017-08-11T09:09:38.268Z,95.2
2017-08-11T09:10:45.773Z,95.5
2017-08-11T09:11:53.254Z,95.9
2017-08-11T09:13:00.705Z,95.3
2017-08-11T09:14:08.193Z,95.6
2017-08-11T09:15:15.671Z,95.3
2017-08-11T09:16:23.150Z,95.5
2017-08-11T09:17:30.649Z,95.6
2017-08-11T09:18:38.423Z,95.7
2017-08-11T09:19:45.904Z,95.8
2017-08-11T09:20:53.385Z,95.7
2017-08-11T09:22:00.862Z,95.5
2017-08-11T09:23:08.015Z,95.3
2017-08-11T09:24:15.491Z,95.6
2017-08-11T09:25:22.963Z,95.5
2017-08-11T09:26:30.618Z,95.7
2017-08-11T09:27:38.111Z,94.9
2017-08-11T09:28:45.892Z,94.9
2017-08-11T09:29:53.383Z,94.8
2017-08-11T09:31:00.869Z,94.9
2017-08-11T09:32:08.347Z,94.5
2017-08-11T09:33:15.822Z,94.8
2017-08-11T09:34:22.619Z,94.4
2017-08-11T09:35:29.766Z,94.9
2017-08-11T09:36:37.243Z,94.3
2017-08-11T09:37:44.726Z,94.2
2017-08-11T09:38:52.212Z,94.1
2017-08-11T09:39:59.688Z,94.5
2017-08-11T09:41:07.170Z,94.1
2017-08-11T09:42:14.650Z,94.2
2017-08-11T09:43:22.131Z,94.1
2017-08-11T09:44:29.609Z,94.1
2017-08-11T09:45:37.051Z,94.2
2017-08-11T09:46:44.529Z,94.2
2017-08-11T09:47:52.016Z,94.4
2017-08-11T09:48:59.490Z,94.6
2017-08-11T09:50:06.969Z,94.1
2017-08-11T09:51:14.745Z,94.1
2017-08-11T09:52:22.239Z,93.5
2017-08-11T09:53:29.721Z,94.3
2017-08-11T09:54:37.195Z,94.6
2017-08-11T09:55:44.679Z,93.9
2017-08-11T09:56:52.158Z,94.1
2017-08-11T09:57:59.641Z,93.6
2017-08-11T09:59:07.126Z,93.2
2017-08-11T10:00:14.603Z,93.8
2017-08-11T10:01:22.081Z,93.7
2017-08-11T10:02:29.858Z,94.5
2017-08-11T10:03:37.339Z,94.2
2017-08-11T10:04:44.808Z,94.2
2017-08-11T10:05:52.291Z,93.8
2017-08-11T10:06:59.790Z,93.3
2017-08-11T10:08:07.564Z,93.6
2017-08-11T10:09:14.717Z,93.1
2017-08-11T10:10:22.345Z,92.8
2017-08-11T10:11:29.855Z,93
2017-08-11T10:12:37.334Z,92.6
2017-08-11T10:13:44.788Z,93.2
2017-08-11T10:14:52.262Z,92.9
2017-08-11T10:15:59.747Z,93.1
2017-08-11T10:17:07.227Z,93.2
2017-08-11T10:18:14.704Z,93.3
2017-08-11T10:19:22.197Z,92.8
2017-08-11T10:20:29.928Z,93
2017-08-11T10:21:37.406Z,93
2017-08-11T10:22:44.885Z,92.8
2017-08-11T10:23:52.360Z,93.3
2017-08-11T10:24:59.809Z,93.3
2017-08-11T10:26:07.292Z,93.1
2017-08-11T10:27:14.766Z,92.9
2017-08-11T10:28:22.249Z,93.1
2017-08-11T10:29:29.394Z,93.3
2017-08-11T10:30:37.176Z,93.1
2017-08-11T10:31:44.656Z,93.3
2017-08-11T10:32:52.148Z,93.1
2017-08-11T10:33:59.629Z,93.6
2017-08-11T10:35:07.113Z,93.3
2017-08-11T10:36:14.891Z,92.8
2017-08-11T10:37:22.367Z,92.9
2017-08-11T10:38:29.523Z,92.6
2017-08-11T10:39:37.002Z,92.8
2017-08-11T10:40:44.718Z,92.7
2017-08-11T10:41:52.498Z,93.3
2017-08-11T10:42:59.646Z,93.6
2017-08-11T10:44:06.799Z,93
2017-08-11T10:45:14.284Z,92.9
2017-08-11T10:46:21.763Z,92.9
2017-08-11T10:47:29.544Z,92.8
2017-08-11T10:48:37.026Z,93.2
2017-08-11T10:49:44.511Z,92.6
2017-08-11T10:50:51.987Z,92.4
2017-08-11T10:51:59.476Z,92.4
2017-08-11T10:53:07.254Z,93.1
2017-08-11T10:54:14.761Z,93.3
2017-08-11T10:55:21.577Z,93.2
2017-08-11T10:56:29.067Z,92.9
2017-08-11T10:57:36.547Z,93.6
2017-08-11T10:58:44.032Z,93.4
2017-08-11T10:59:51.518Z,92.8
2017-08-11T11:00:58.992Z,93
2017-08-11T11:02:06.470Z,93.2
2017-08-11T11:03:13.950Z,93.3
2017-08-11T11:04:21.068Z,93.3
2017-08-11T11:05:28.229Z,93.4
2017-08-11T11:06:35.721Z,93.3
2017-08-11T11:07:42.875Z,93.7
2017-08-11T11:08:50.358Z,92.9
2017-08-11T11:09:57.149Z,92.9
2017-08-11T11:11:04.636Z,92.8
2017-08-11T11:12:11.786Z,93.2
2017-08-11T11:13:19.264Z,93.1
2017-08-11T11:14:26.742Z,92.8
2017-08-11T11:15:34.525Z,92.7
2017-08-11T11:16:41.677Z,93
2017-08-11T11:17:49.164Z,93
2017-08-11T11:18:56.643Z,92.7
2017-08-11T11:20:04.117Z,92.5
2017-08-11T11:21:10.945Z,92.6
2017-08-11T11:22:18.433Z,92.8
2017-08-11T11:23:25.915Z,92.8
2017-08-11T11:24:33.402Z,92.9
2017-08-11T11:25:41.180Z,92.7
2017-08-11T11:26:48.663Z,92.8
2017-08-11T11:27:55.821Z,92.3
2017-08-11T11:29:03.485Z,92.6
2017-08-11T11:30:10.964Z,92.8
2017-08-11T11:31:18.751Z,92.8
2017-08-11T11:32:26.237Z,93.1
2017-08-11T11:33:33.724Z,92.9
2017-08-11T11:34:41.202Z,93
2017-08-11T11:35:48.684Z,93.3
2017-08-11T11:36:56.466Z,92.8
2017-08-11T11:38:03.942Z,92.9
2017-08-11T11:39:11.420Z,92.9
2017-08-11T11:40:18.902Z,93.4
2017-08-11T11:41:26.384Z,92.9
2017-08-11T11:42:34.187Z,93.2
2017-08-11T11:43:41.670Z,92.9
2017-08-11T11:44:49.142Z,93.3
2017-08-11T11:45:56.621Z,93.2
2017-08-11T11:47:03.767Z,93
2017-08-11T11:48:11.247Z,93.1
2017-08-11T11:49:18.784Z,93.1
2017-08-11T11:50:26.261Z,93.2
2017-08-11T11:51:33.746Z,93.7
2017-08-11T11:52:41.229Z,93.3
2017-08-11T11:53:49.020Z,93.3
2017-08-11T11:54:56.500Z,93.1
2017-08-11T11:56:03.981Z,93.2
2017-08-11T11:57:11.465Z,93.4
2017-08-11T11:58:18.946Z,93.5
2017-08-11T11:59:26.721Z,93
2017-08-11T12:00:33.876Z,93.4
2017-08-11T12:01:41.356Z,93.3
2017-08-11T12:02:48.507Z,93.3
2017-08-11T12:03:55.657Z,93.4
2017-08-11T12:05:03.135Z,92.9
2017-08-11T12:06:10.625Z,92.8
2017-08-11T12:07:18.151Z,92.8
2017-08-11T12:08:25.635Z,93.4
2017-08-11T12:09:33.116Z,93.4
2017-08-11T12:10:40.585Z,92.9
2017-08-11T12:11:48.073Z,93.3
2017-08-11T12:12:55.572Z,93.6
2017-08-11T12:14:03.068Z,93.6
2017-08-11T12:15:10.222Z,93.2
2017-08-11T12:16:18.009Z,93.2
2017-08-11T12:17:25.487Z,93.2
2017-08-11T12:18:32.964Z,93.7
2017-08-11T12:19:40.440Z,94
2017-08-11T12:20:47.917Z,94
2017-08-11T12:21:55.950Z,93.5
2017-08-11T12:23:03.431Z,93.3
2017-08-11T12:24:10.913Z,93.4
2017-08-11T12:25:18.062Z,93.3
2017-08-11T12:26:25.958Z,93.5
2017-08-11T12:27:33.654Z,93.6
2017-08-11T12:28:41.134Z,93.4
2017-08-11T12:29:48.631Z,93.6
2017-08-11T12:30:56.113Z,94.1
2017-08-11T12:32:03.589Z,93.8
2017-08-11T12:33:11.044Z,93.6
2017-08-11T12:34:18.193Z,93.6
2017-08-11T12:35:25.675Z,93.6
2017-08-11T12:36:33.157Z,93.7
2017-08-11T12:37:40.637Z,93.7
2017-08-11T12:38:48.429Z,93.6
2017-08-11T12:39:55.907Z,93.4
2017-08-11T12:41:03.057Z,93.9
2017-08-11T12:42:11.494Z,93.4
2017-08-11T12:43:18.969Z,94.2
2017-08-11T12:44:26.986Z,95
2017-08-11T12:45:34.469Z,94.2
2017-08-11T12:46:42.186Z,94.3
2017-08-11T12:47:49.663Z,93.7
2017-08-11T12:48:57.176Z,94
2017-08-11T12:50:04.628Z,93.5
2017-08-11T12:51:12.107Z,94.4
2017-08-11T12:52:18.960Z,94.2
2017-08-11T12:53:26.438Z,94.1
2017-08-11T12:54:33.592Z,94.3
2017-08-11T12:55:41.367Z,94.3
2017-08-11T12:56:48.516Z,94.1
2017-08-11T12:57:56.000Z,93.6
2017-08-11T12:59:03.486Z,94.2
2017-08-11T13:00:10.974Z,94.4
2017-08-11T13:01:18.955Z,93.5
2017-08-11T13:02:26.429Z,94.2
2017-08-11T13:03:33.583Z,94.2
2017-08-11T13:04:41.065Z,94.9
2017-08-11T13:05:47.896Z,93.8
2017-08-11T13:06:55.855Z,94.1
2017-08-11T13:08:03.415Z,93.5
2017-08-11T13:09:10.898Z,93.8
2017-08-11T13:10:18.058Z,93.7
2017-08-11T13:11:25.535Z,93.6
2017-08-11T13:12:32.611Z,93.6
2017-08-11T13:13:40.097Z,94
2017-08-11T13:14:47.578Z,93.9
2017-08-11T13:15:55.077Z,93.8
2017-08-11T13:17:02.562Z,94.7
2017-08-11T13:18:10.342Z,93.8
2017-08-11T13:19:17.828Z,94.3
2017-08-11T13:20:25.310Z,94.7
2017-08-11T13:21:32.791Z,94.2
2017-08-11T13:22:40.268Z,94.3
2017-08-11T13:23:48.045Z,94.4
2017-08-11T13:24:55.560Z,93.9
2017-08-11T13:26:02.718Z,94.4
2017-08-11T13:27:10.222Z,94.5
2017-08-11T13:28:17.708Z,94.6
2017-08-11T13:29:25.483Z,94.3
2017-08-11T13:30:32.655Z,94.8
2017-08-11T13:31:40.139Z,94
2017-08-11T13:32:47.615Z,94.1
2017-08-11T13:33:55.106Z,94.5
2017-08-11T13:35:02.887Z,94.6
2017-08-11T13:36:10.376Z,94.6
2017-08-11T13:37:17.854Z,93.8
2017-08-11T13:38:25.333Z,94.1
2017-08-11T13:39:32.485Z,94.2
2017-08-11T13:40:40.271Z,94.3
2017-08-11T13:41:47.099Z,94.2
2017-08-11T13:42:54.574Z,94
2017-08-11T13:44:02.071Z,94.3
2017-08-11T13:45:09.552Z,94.3
2017-08-11T13:46:17.287Z,94.2
2017-08-11T13:47:24.769Z,94.6
2017-08-11T13:48:32.259Z,94.9
2017-08-11T13:49:39.732Z,95.1
2017-08-11T13:50:47.210Z,95.1
2017-08-11T13:51:54.948Z,94.9
2017-08-11T13:53:02.089Z,95.1
2017-08-11T13:54:09.572Z,95.1
2017-08-11T13:55:17.050Z,95.2
2017-08-11T13:56:24.550Z,94.9
2017-08-11T13:57:31.708Z,95.2
2017-08-11T13:58:39.197Z,95.2
2017-08-11T13:59:46.680Z,95.6
2017-08-11T14:00:53.843Z,95.1
2017-08-11T14:02:01.964Z,95.5
2017-08-11T14:03:09.764Z,95
2017-08-11T14:04:16.920Z,95.3
2017-08-11T14:05:24.403Z,95.1
2017-08-11T14:06:31.888Z,95.1
2017-08-11T14:07:39.376Z,95.4
2017-08-11T14:08:47.153Z,95
2017-08-11T14:09:54.650Z,95.8
2017-08-11T14:11:02.130Z,95.7
2017-08-11T14:12:09.281Z,95.1
2017-08-11T14:13:16.432Z,95.7
2017-08-11T14:14:24.454Z,96.2
2017-08-11T14:15:31.940Z,95.6
2017-08-11T14:16:39.428Z,94.8
2017-08-11T14:17:46.574Z,96.4
2017-08-11T14:18:54.051Z,96.3
2017-08-11T14:20:01.833Z,96.7
2017-08-11T14:21:08.985Z,96.5
2017-08-11T14:22:16.464Z,96.7
2017-08-11T14:23:23.943Z,95.6
2017-08-11T14:24:31.431Z,95.7
2017-08-11T14:25:39.208Z,95.7
2017-08-11T14:26:46.685Z,96.1
2017-08-11T14:27:54.159Z,96.6
2017-08-11T14:29:01.647Z,96.1
2017-08-11T14:30:09.153Z,95.7
2017-08-11T14:31:16.312Z,96.1
2017-08-11T14:32:23.804Z,95.5
2017-08-11T14:33:30.624Z,95.9
2017-08-11T14:34:38.106Z,96.3
2017-08-11T14:35:45.591Z,95.8
2017-08-11T14:36:53.376Z,95.7
2017-08-11T14:38:00.856Z,95.6
2017-08-11T14:39:08.347Z,96.3
2017-08-11T14:40:15.822Z,96.2
2017-08-11T14:41:23.315Z,96
2017-08-11T14:42:31.101Z,95.7
2017-08-11T14:43:38.581Z,96.4
2017-08-11T14:44:46.070Z,96.6
2017-08-11T14:45:53.557Z,96
2017-08-11T14:47:01.040Z,95.9
2017-08-11T14:48:08.821Z,95.5
2017-08-11T14:49:16.310Z,96.3
2017-08-11T14:50:23.793Z,96.5
2017-08-11T14:51:31.271Z,96.2
2017-08-11T14:52:38.757Z,96.1
2017-08-11T14:53:46.543Z,95.7
2017-08-11T14:54:54.026Z,96.6
2017-08-11T14:56:01.189Z,95.7
2017-08-11T14:57:08.342Z,95.7
2017-08-11T14:58:16.603Z,95.9
2017-08-11T14:59:24.376Z,96.3
2017-08-11T15:00:31.548Z,96
2017-08-11T15:01:39.024Z,95.7
2017-08-11T15:02:46.512Z,96.3
2017-08-11T15:03:53.673Z,96.1
2017-08-11T15:05:01.405Z,96.4
2017-08-11T15:06:08.885Z,96.4